• Join FlightAware (Why Join?)
  • Login
  • US Flag 
11:47AM EDT


 

Airport Tracker/Info


-or-


 

Live Flight TrackerFlight Track Log ✈ SCX8701 ✈ 23-May-2014 ✈ KFLL - KMIA

Flight Track Log - Related Links

Times and Time Zones

All times are in EDT time to prevent confusion due to time zone crossing. See the SCX8701 flight status page for this flight to view local times or setup timezone preferences in your user account.

Time Position Orientation Groundspeed Altitude Reporting Facility
EDT Latitude Longitude Course Direction KTS MPH feet Rate Location/Type
01:06AM 26.0756 -80.1381 81° East 178 205 800  Level Miami Center
01:08AM 26.0847 -80.0703 81° East 193 222 2,900 1,380 Climbing Miami Center
01:08AM 26.0817 -80.0389 96° East 214 246 3,100 60 Climbing Miami Center
01:09AM 26.0556 -80.0247 154° Southeast 212 244 3,000 -120 Descending Miami Center
01:09AM 26.0322 -80.0258 182° South 212 244 3,000  Level Miami Center
01:10AM 26.0125 -80.0556 234° Southwest 210 242 3,000 60 Level Miami Center
01:10AM 26.0019 -80.0767 241° Southwest 226 260 3,100  Climbing Miami Center
01:11AM 25.9842 -80.1200 245° Southwest 228 262 3,000 -120 Descending Miami Center
01:11AM 25.9703 -80.1486 242° Southwest 239 275 3,000  Level Miami Center
01:12AM 25.9544 -80.1856 245° Southwest 235 270 3,000  Level Miami Center
01:12AM 25.9431 -80.2136 246° West 237 273 3,000  Level Miami Center
01:13AM 25.9275 -80.2517 246° West 235 270 3,000  Level Miami Center
01:13AM 25.9200 -80.2814 254° West 238 274 3,000  Level Miami Center
01:14AM 25.9106 -80.3225 256° West 236 272 3,000  Level Miami Center
01:14AM 25.8975 -80.3700 253° West 236 272 3,000  Level Miami Center
01:15AM 25.8928 -80.3925 257° West 236 272 3,000 -420 Level Miami Center
01:16AM 25.8400 -80.4119 198° South 220 253 2,400 -780 Descending Miami Center
01:17AM 25.7908 -80.3894 158° South 189 217 1,500 -900 Descending Miami Center
01:18AM 25.7850 -80.3486 99° East 142 163 700 -840 Descending Miami Center
01:18AM 25.7844 -80.3358 93° East 131 151 500 -660 Descending Miami Center
01:19AM 25.7858 -80.3028 87° East 137 158 100 -540 Descending Miami Center
01:21AM 25.7833 -80.2833 115° Southeast  Level FlightAware Approximate